sensor_id;sensor_type;location;lat;lon;timestamp;P1;durP1;ratioP1;P2;durP2;ratioP2
14778;SDS011;7481;53.750;10.570;2023-05-21T00:02:42;5.13;;;2.83;;
14778;SDS011;7481;53.750;10.570;2023-05-21T00:05:30;4.37;;;2.27;;
14778;SDS011;7481;53.750;10.570;2023-05-21T00:08:18;5.00;;;2.40;;
14778;SDS011;7481;53.750;10.570;2023-05-21T00:11:05;7.43;;;3.20;;
14778;SDS011;7481;53.750;10.570;2023-05-21T00:13:53;3.87;;;2.40;;
14778;SDS011;7481;53.750;10.570;2023-05-21T00:16:40;3.67;;;2.23;;
14778;SDS011;7481;53.750;10.570;2023-05-21T00:19:30;7.20;;;3.07;;
14778;SDS011;7481;53.750;10.570;2023-05-21T00:22:21;4.30;;;2.27;;
14778;SDS011;7481;53.750;10.570;2023-05-21T00:25:09;4.77;;;2.57;;
14778;SDS011;7481;53.750;10.570;2023-05-21T00:27:57;5.47;;;2.47;;
14778;SDS011;7481;53.750;10.570;2023-05-21T00:30:44;5.50;;;2.77;;
14778;SDS011;7481;53.750;10.570;2023-05-21T00:33:32;6.10;;;2.33;;
14778;SDS011;7481;53.750;10.570;2023-05-21T00:36:20;5.80;;;2.20;;
14778;SDS011;7481;53.750;10.570;2023-05-21T00:39:09;5.73;;;2.40;;
14778;SDS011;7481;53.750;10.570;2023-05-21T00:41:57;5.70;;;2.40;;
14778;SDS011;7481;53.750;10.570;2023-05-21T00:44:45;6.63;;;2.77;;
14778;SDS011;7481;53.750;10.570;2023-05-21T00:47:33;8.43;;;2.80;;
14778;SDS011;7481;53.750;10.570;2023-05-21T00:50:21;3.87;;;2.20;;
14778;SDS011;7481;53.750;10.570;2023-05-21T00:53:09;4.40;;;2.37;;
14778;SDS011;7481;53.750;10.570;2023-05-21T00:55:57;4.80;;;2.50;;
14778;SDS011;7481;53.750;10.570;2023-05-21T00:58:44;6.73;;;3.13;;
14778;SDS011;7481;53.750;10.570;2023-05-21T01:01:33;6.70;;;2.27;;
14778;SDS011;7481;53.750;10.570;2023-05-21T01:04:22;5.53;;;3.13;;
14778;SDS011;7481;53.750;10.570;2023-05-21T01:07:10;5.33;;;2.67;;
14778;SDS011;7481;53.750;10.570;2023-05-21T01:09:58;6.13;;;2.40;;
14778;SDS011;7481;53.750;10.570;2023-05-21T01:12:45;6.57;;;2.40;;
14778;SDS011;7481;53.750;10.570;2023-05-21T01:15:33;6.33;;;3.03;;
14778;SDS011;7481;53.750;10.570;2023-05-21T01:18:23;3.83;;;2.50;;
14778;SDS011;7481;53.750;10.570;2023-05-21T01:21:11;5.07;;;2.57;;
14778;SDS011;7481;53.750;10.570;2023-05-21T01:24:03;5.83;;;2.83;;
14778;SDS011;7481;53.750;10.570;2023-05-21T01:26:51;5.27;;;2.93;;
14778;SDS011;7481;53.750;10.570;2023-05-21T01:29:38;4.00;;;2.27;;
14778;SDS011;7481;53.750;10.570;2023-05-21T01:35:14;4.87;;;2.53;;
14778;SDS011;7481;53.750;10.570;2023-05-21T01:40:57;3.80;;;2.23;;
14778;SDS011;7481;53.750;10.570;2023-05-21T01:43:49;3.80;;;2.40;;
14778;SDS011;7481;53.750;10.570;2023-05-21T01:46:37;6.57;;;2.67;;
14778;SDS011;7481;53.750;10.570;2023-05-21T01:49:25;5.00;;;2.97;;
14778;SDS011;7481;53.750;10.570;2023-05-21T01:52:12;5.77;;;2.80;;
14778;SDS011;7481;53.750;10.570;2023-05-21T01:55:00;5.03;;;2.70;;
14778;SDS011;7481;53.750;10.570;2023-05-21T01:57:47;5.10;;;2.63;;
14778;SDS011;7481;53.750;10.570;2023-05-21T02:00:35;8.47;;;3.23;;
14778;SDS011;7481;53.750;10.570;2023-05-21T02:03:23;4.03;;;2.50;;
14778;SDS011;7481;53.750;10.570;2023-05-21T02:06:11;4.43;;;2.50;;
14778;SDS011;7481;53.750;10.570;2023-05-21T02:08:58;4.37;;;2.50;;
14778;SDS011;7481;53.750;10.570;2023-05-21T02:11:46;7.53;;;3.10;;
14778;SDS011;7481;53.750;10.570;2023-05-21T02:14:33;9.07;;;2.63;;
14778;SDS011;7481;53.750;10.570;2023-05-21T02:17:21;5.40;;;2.57;;
14778;SDS011;7481;53.750;10.570;2023-05-21T02:20:09;9.50;;;3.30;;
14778;SDS011;7481;53.750;10.570;2023-05-21T02:22:57;7.93;;;3.00;;
14778;SDS011;7481;53.750;10.570;2023-05-21T02:25:44;4.53;;;2.80;;
14778;SDS011;7481;53.750;10.570;2023-05-21T02:28:32;6.97;;;2.63;;
14778;SDS011;7481;53.750;10.570;2023-05-21T02:31:21;5.10;;;2.73;;
14778;SDS011;7481;53.750;10.570;2023-05-21T02:34:08;5.40;;;2.90;;
14778;SDS011;7481;53.750;10.570;2023-05-21T02:36:56;5.90;;;3.10;;
14778;SDS011;7481;53.750;10.570;2023-05-21T02:39:44;6.50;;;3.17;;
14778;SDS011;7481;53.750;10.570;2023-05-21T02:42:31;7.47;;;3.00;;
14778;SDS011;7481;53.750;10.570;2023-05-21T02:45:19;4.97;;;3.23;;
14778;SDS011;7481;53.750;10.570;2023-05-21T02:48:06;7.17;;;2.87;;
14778;SDS011;7481;53.750;10.570;2023-05-21T02:50:54;5.43;;;2.87;;
14778;SDS011;7481;53.750;10.570;2023-05-21T02:53:41;6.63;;;3.07;;
14778;SDS011;7481;53.750;10.570;2023-05-21T02:56:29;4.40;;;2.93;;
14778;SDS011;7481;53.750;10.570;2023-05-21T02:59:16;8.13;;;2.73;;
14778;SDS011;7481;53.750;10.570;2023-05-21T03:02:03;5.27;;;2.93;;
14778;SDS011;7481;53.750;10.570;2023-05-21T03:04:51;7.17;;;3.00;;
14778;SDS011;7481;53.750;10.570;2023-05-21T03:07:39;3.97;;;2.67;;
14778;SDS011;7481;53.750;10.570;2023-05-21T03:10:27;4.60;;;2.67;;
14778;SDS011;7481;53.750;10.570;2023-05-21T03:13:14;3.90;;;2.77;;
14778;SDS011;7481;53.750;10.570;2023-05-21T03:16:02;6.00;;;2.73;;
14778;SDS011;7481;53.750;10.570;2023-05-21T03:18:49;6.60;;;3.33;;
14778;SDS011;7481;53.750;10.570;2023-05-21T03:21:37;6.77;;;3.23;;
14778;SDS011;7481;53.750;10.570;2023-05-21T03:24:25;8.40;;;3.10;;
14778;SDS011;7481;53.750;10.570;2023-05-21T03:27:12;5.63;;;3.30;;
14778;SDS011;7481;53.750;10.570;2023-05-21T03:30:00;4.27;;;2.60;;
14778;SDS011;7481;53.750;10.570;2023-05-21T03:32:47;6.40;;;3.30;;
14778;SDS011;7481;53.750;10.570;2023-05-21T03:35:35;7.00;;;2.80;;
14778;SDS011;7481;53.750;10.570;2023-05-21T03:38:23;8.23;;;3.47;;
14778;SDS011;7481;53.750;10.570;2023-05-21T03:41:10;3.30;;;2.87;;
14778;SDS011;7481;53.750;10.570;2023-05-21T03:43:57;5.27;;;2.83;;
14778;SDS011;7481;53.750;10.570;2023-05-21T03:46:45;7.77;;;2.87;;
14778;SDS011;7481;53.750;10.570;2023-05-21T03:49:32;8.03;;;3.00;;
14778;SDS011;7481;53.750;10.570;2023-05-21T03:52:20;6.73;;;3.07;;
14778;SDS011;7481;53.750;10.570;2023-05-21T03:55:07;5.40;;;2.73;;
14778;SDS011;7481;53.750;10.570;2023-05-21T03:57:55;8.10;;;3.07;;
14778;SDS011;7481;53.750;10.570;2023-05-21T04:00:42;10.33;;;3.73;;
14778;SDS011;7481;53.750;10.570;2023-05-21T04:03:30;5.37;;;3.07;;
14778;SDS011;7481;53.750;10.570;2023-05-21T04:06:22;6.03;;;3.27;;
14778;SDS011;7481;53.750;10.570;2023-05-21T04:09:10;7.87;;;3.57;;
14778;SDS011;7481;53.750;10.570;2023-05-21T04:11:57;4.90;;;3.33;;
14778;SDS011;7481;53.750;10.570;2023-05-21T04:14:45;5.20;;;2.93;;
14778;SDS011;7481;53.750;10.570;2023-05-21T04:17:32;5.40;;;3.30;;
14778;SDS011;7481;53.750;10.570;2023-05-21T04:20:20;5.00;;;3.47;;
14778;SDS011;7481;53.750;10.570;2023-05-21T04:23:08;5.80;;;3.10;;
14778;SDS011;7481;53.750;10.570;2023-05-21T04:25:55;5.50;;;3.60;;
14778;SDS011;7481;53.750;10.570;2023-05-21T04:28:43;6.60;;;2.83;;
14778;SDS011;7481;53.750;10.570;2023-05-21T04:31:31;6.57;;;3.57;;
14778;SDS011;7481;53.750;10.570;2023-05-21T04:34:18;6.13;;;3.50;;
14778;SDS011;7481;53.750;10.570;2023-05-21T04:37:06;6.70;;;3.90;;
14778;SDS011;7481;53.750;10.570;2023-05-21T04:39:54;9.53;;;3.70;;
14778;SDS011;7481;53.750;10.570;2023-05-21T04:42:43;7.07;;;3.33;;
14778;SDS011;7481;53.750;10.570;2023-05-21T04:45:32;8.17;;;4.00;;
14778;SDS011;7481;53.750;10.570;2023-05-21T04:48:22;6.27;;;3.87;;
14778;SDS011;7481;53.750;10.570;2023-05-21T04:51:11;7.60;;;3.87;;
14778;SDS011;7481;53.750;10.570;2023-05-21T04:53:58;8.20;;;3.77;;
14778;SDS011;7481;53.750;10.570;2023-05-21T04:56:46;7.40;;;4.10;;
14778;SDS011;7481;53.750;10.570;2023-05-21T04:59:33;9.33;;;4.30;;
14778;SDS011;7481;53.750;10.570;2023-05-21T05:02:21;10.53;;;3.50;;
14778;SDS011;7481;53.750;10.570;2023-05-21T05:05:08;8.47;;;4.03;;
14778;SDS011;7481;53.750;10.570;2023-05-21T05:07:56;5.87;;;3.50;;
14778;SDS011;7481;53.750;10.570;2023-05-21T05:10:43;6.47;;;3.70;;
14778;SDS011;7481;53.750;10.570;2023-05-21T05:13:31;8.43;;;3.93;;
14778;SDS011;7481;53.750;10.570;2023-05-21T05:16:18;7.73;;;3.47;;
14778;SDS011;7481;53.750;10.570;2023-05-21T05:19:11;6.17;;;4.30;;
14778;SDS011;7481;53.750;10.570;2023-05-21T05:21:58;6.63;;;4.10;;
14778;SDS011;7481;53.750;10.570;2023-05-21T05:24:45;6.57;;;4.20;;
14778;SDS011;7481;53.750;10.570;2023-05-21T05:27:33;7.50;;;4.30;;
14778;SDS011;7481;53.750;10.570;2023-05-21T05:30:23;8.73;;;3.77;;
14778;SDS011;7481;53.750;10.570;2023-05-21T05:33:11;9.67;;;3.87;;
14778;SDS011;7481;53.750;10.570;2023-05-21T05:35:59;8.38;;;3.97;;
14778;SDS011;7481;53.750;10.570;2023-05-21T05:38:46;8.85;;;4.68;;
14778;SDS011;7481;53.750;10.570;2023-05-21T05:41:33;5.50;;;3.70;;
14778;SDS011;7481;53.750;10.570;2023-05-21T05:44:21;6.23;;;4.20;;
14778;SDS011;7481;53.750;10.570;2023-05-21T05:47:08;10.32;;;4.85;;
14778;SDS011;7481;53.750;10.570;2023-05-21T05:49:56;7.93;;;4.00;;
14778;SDS011;7481;53.750;10.570;2023-05-21T05:52:43;7.47;;;4.57;;
14778;SDS011;7481;53.750;10.570;2023-05-21T05:55:31;6.60;;;4.35;;
14778;SDS011;7481;53.750;10.570;2023-05-21T05:58:18;9.00;;;4.32;;
14778;SDS011;7481;53.750;10.570;2023-05-21T06:01:06;5.85;;;4.30;;
14778;SDS011;7481;53.750;10.570;2023-05-21T06:03:53;9.38;;;4.93;;
14778;SDS011;7481;53.750;10.570;2023-05-21T06:06:42;6.60;;;3.90;;
14778;SDS011;7481;53.750;10.570;2023-05-21T06:09:30;12.07;;;4.95;;
14778;SDS011;7481;53.750;10.570;2023-05-21T06:12:17;8.38;;;5.13;;
14778;SDS011;7481;53.750;10.570;2023-05-21T06:15:05;7.82;;;4.90;;
14778;SDS011;7481;53.750;10.570;2023-05-21T06:17:52;6.68;;;4.75;;
14778;SDS011;7481;53.750;10.570;2023-05-21T06:20:40;8.07;;;4.88;;
14778;SDS011;7481;53.750;10.570;2023-05-21T06:23:27;9.18;;;5.80;;
14778;SDS011;7481;53.750;10.570;2023-05-21T06:26:17;9.13;;;5.60;;
14778;SDS011;7481;53.750;10.570;2023-05-21T06:29:05;11.60;;;6.05;;
14778;SDS011;7481;53.750;10.570;2023-05-21T06:31:52;7.93;;;5.28;;
14778;SDS011;7481;53.750;10.570;2023-05-21T06:34:40;8.48;;;5.28;;
14778;SDS011;7481;53.750;10.570;2023-05-21T06:37:27;9.38;;;5.60;;
14778;SDS011;7481;53.750;10.570;2023-05-21T06:40:14;7.38;;;5.75;;
14778;SDS011;7481;53.750;10.570;2023-05-21T06:43:02;7.10;;;5.40;;
14778;SDS011;7481;53.750;10.570;2023-05-21T06:45:50;7.93;;;5.60;;
14778;SDS011;7481;53.750;10.570;2023-05-21T06:48:38;7.40;;;5.55;;
14778;SDS011;7481;53.750;10.570;2023-05-21T06:51:25;8.70;;;5.65;;
14778;SDS011;7481;53.750;10.570;2023-05-21T06:54:12;9.52;;;6.65;;
14778;SDS011;7481;53.750;10.570;2023-05-21T06:57:00;8.45;;;5.88;;
14778;SDS011;7481;53.750;10.570;2023-05-21T06:59:47;7.25;;;6.13;;
14778;SDS011;7481;53.750;10.570;2023-05-21T07:02:35;9.70;;;5.72;;
14778;SDS011;7481;53.750;10.570;2023-05-21T07:05:22;9.07;;;6.55;;
14778;SDS011;7481;53.750;10.570;2023-05-21T07:08:10;10.55;;;6.65;;
14778;SDS011;7481;53.750;10.570;2023-05-21T07:10:57;6.43;;;5.50;;
14778;SDS011;7481;53.750;10.570;2023-05-21T07:13:45;8.10;;;6.07;;
14778;SDS011;7481;53.750;10.570;2023-05-21T07:16:32;10.30;;;6.38;;
14778;SDS011;7481;53.750;10.570;2023-05-21T07:19:20;9.15;;;6.97;;
14778;SDS011;7481;53.750;10.570;2023-05-21T07:22:07;9.73;;;6.65;;
14778;SDS011;7481;53.750;10.570;2023-05-21T07:24:55;8.30;;;6.57;;
14778;SDS011;7481;53.750;10.570;2023-05-21T07:27:42;12.73;;;7.25;;
14778;SDS011;7481;53.750;10.570;2023-05-21T07:30:30;8.63;;;6.55;;
14778;SDS011;7481;53.750;10.570;2023-05-21T07:33:17;12.20;;;7.32;;
14778;SDS011;7481;53.750;10.570;2023-05-21T07:36:06;12.30;;;7.38;;
14778;SDS011;7481;53.750;10.570;2023-05-21T07:38:53;9.90;;;8.18;;
14778;SDS011;7481;53.750;10.570;2023-05-21T07:41:41;9.43;;;7.30;;
14778;SDS011;7481;53.750;10.570;2023-05-21T07:44:29;8.35;;;6.97;;
14778;SDS011;7481;53.750;10.570;2023-05-21T07:47:17;8.82;;;6.82;;
14778;SDS011;7481;53.750;10.570;2023-05-21T07:50:05;10.25;;;7.75;;
14778;SDS011;7481;53.750;10.570;2023-05-21T07:52:52;9.82;;;7.25;;
14778;SDS011;7481;53.750;10.570;2023-05-21T07:55:40;11.95;;;7.45;;
14778;SDS011;7481;53.750;10.570;2023-05-21T07:58:33;10.55;;;7.45;;
14778;SDS011;7481;53.750;10.570;2023-05-21T08:01:20;10.88;;;8.15;;
14778;SDS011;7481;53.750;10.570;2023-05-21T08:04:09;11.68;;;7.93;;
14778;SDS011;7481;53.750;10.570;2023-05-21T08:06:57;13.48;;;8.40;;
14778;SDS011;7481;53.750;10.570;2023-05-21T08:09:44;14.68;;;7.78;;
14778;SDS011;7481;53.750;10.570;2023-05-21T08:12:32;12.05;;;8.68;;
14778;SDS011;7481;53.750;10.570;2023-05-21T08:15:19;11.77;;;8.80;;
14778;SDS011;7481;53.750;10.570;2023-05-21T08:18:07;11.23;;;8.75;;
14778;SDS011;7481;53.750;10.570;2023-05-21T08:20:55;10.15;;;8.35;;
14778;SDS011;7481;53.750;10.570;2023-05-21T08:23:43;10.45;;;8.43;;
14778;SDS011;7481;53.750;10.570;2023-05-21T08:26:30;12.00;;;8.27;;
14778;SDS011;7481;53.750;10.570;2023-05-21T08:29:17;10.38;;;8.73;;
14778;SDS011;7481;53.750;10.570;2023-05-21T08:32:05;12.27;;;8.93;;
14778;SDS011;7481;53.750;10.570;2023-05-21T08:34:53;9.52;;;8.50;;
14778;SDS011;7481;53.750;10.570;2023-05-21T08:37:40;12.40;;;9.18;;
14778;SDS011;7481;53.750;10.570;2023-05-21T08:40:28;9.68;;;7.88;;
14778;SDS011;7481;53.750;10.570;2023-05-21T08:43:16;9.00;;;7.95;;
14778;SDS011;7481;53.750;10.570;2023-05-21T08:46:03;9.13;;;8.07;;
14778;SDS011;7481;53.750;10.570;2023-05-21T08:48:51;9.13;;;7.78;;
14778;SDS011;7481;53.750;10.570;2023-05-21T08:51:42;10.27;;;7.68;;
14778;SDS011;7481;53.750;10.570;2023-05-21T08:54:30;13.93;;;8.40;;
14778;SDS011;7481;53.750;10.570;2023-05-21T08:57:18;10.60;;;7.80;;
14778;SDS011;7481;53.750;10.570;2023-05-21T09:00:05;11.65;;;7.95;;
14778;SDS011;7481;53.750;10.570;2023-05-21T09:02:53;9.23;;;7.05;;
14778;SDS011;7481;53.750;10.570;2023-05-21T09:05:42;10.07;;;6.40;;
14778;SDS011;7481;53.750;10.570;2023-05-21T09:08:30;11.02;;;6.97;;
14778;SDS011;7481;53.750;10.570;2023-05-21T09:11:18;8.68;;;6.50;;
14778;SDS011;7481;53.750;10.570;2023-05-21T09:14:07;9.27;;;6.82;;
14778;SDS011;7481;53.750;10.570;2023-05-21T09:16:55;12.48;;;8.13;;
14778;SDS011;7481;53.750;10.570;2023-05-21T09:20:03;8.27;;;7.40;;
14778;SDS011;7481;53.750;10.570;2023-05-21T09:23:02;9.13;;;6.97;;
14778;SDS011;7481;53.750;10.570;2023-05-21T09:25:50;9.02;;;6.70;;
14778;SDS011;7481;53.750;10.570;2023-05-21T09:28:38;10.77;;;7.03;;
14778;SDS011;7481;53.750;10.570;2023-05-21T09:31:25;12.15;;;6.97;;
14778;SDS011;7481;53.750;10.570;2023-05-21T09:34:13;8.93;;;7.28;;
14778;SDS011;7481;53.750;10.570;2023-05-21T09:37:00;11.20;;;7.25;;
14778;SDS011;7481;53.750;10.570;2023-05-21T09:39:51;9.88;;;7.68;;
14778;SDS011;7481;53.750;10.570;2023-05-21T09:42:46;9.95;;;6.93;;
14778;SDS011;7481;53.750;10.570;2023-05-21T09:45:33;8.48;;;6.57;;
14778;SDS011;7481;53.750;10.570;2023-05-21T09:51:21;8.55;;;5.22;;
14778;SDS011;7481;53.750;10.570;2023-05-21T09:54:09;9.73;;;5.60;;
14778;SDS011;7481;53.750;10.570;2023-05-21T09:56:56;8.45;;;5.20;;
14778;SDS011;7481;53.750;10.570;2023-05-21T09:59:48;7.13;;;5.75;;
14778;SDS011;7481;53.750;10.570;2023-05-21T10:02:36;9.27;;;5.80;;
14778;SDS011;7481;53.750;10.570;2023-05-21T10:05:26;9.02;;;5.95;;
14778;SDS011;7481;53.750;10.570;2023-05-21T10:08:13;9.32;;;6.10;;
14778;SDS011;7481;53.750;10.570;2023-05-21T10:11:03;8.60;;;5.95;;
14778;SDS011;7481;53.750;10.570;2023-05-21T10:13:59;6.50;;;5.13;;
14778;SDS011;7481;53.750;10.570;2023-05-21T10:16:48;5.90;;;5.13;;
14778;SDS011;7481;53.750;10.570;2023-05-21T10:19:36;9.18;;;5.97;;
14778;SDS011;7481;53.750;10.570;2023-05-21T10:22:24;10.32;;;6.07;;
14778;SDS011;7481;53.750;10.570;2023-05-21T10:25:11;11.50;;;6.13;;
14778;SDS011;7481;53.750;10.570;2023-05-21T10:27:59;9.77;;;6.55;;
14778;SDS011;7481;53.750;10.570;2023-05-21T10:30:47;13.38;;;6.10;;
14778;SDS011;7481;53.750;10.570;2023-05-21T10:33:35;12.52;;;6.32;;
14778;SDS011;7481;53.750;10.570;2023-05-21T10:36:23;8.48;;;6.60;;
14778;SDS011;7481;53.750;10.570;2023-05-21T10:39:11;12.30;;;7.25;;
14778;SDS011;7481;53.750;10.570;2023-05-21T10:42:05;8.05;;;6.43;;
14778;SDS011;7481;53.750;10.570;2023-05-21T10:45:07;10.77;;;6.78;;
14778;SDS011;7481;53.750;10.570;2023-05-21T11:00:06;13.70;;;8.82;;
14778;SDS011;7481;53.750;10.570;2023-05-21T11:02:54;9.50;;;7.30;;
14778;SDS011;7481;53.750;10.570;2023-05-21T11:08:39;14.07;;;8.45;;
14778;SDS011;7481;53.750;10.570;2023-05-21T11:11:40;9.60;;;7.68;;
14778;SDS011;7481;53.750;10.570;2023-05-21T11:14:32;8.55;;;7.65;;
14778;SDS011;7481;53.750;10.570;2023-05-21T11:17:37;9.02;;;7.70;;
14778;SDS011;7481;53.750;10.570;2023-05-21T11:20:26;10.90;;;8.25;;
14778;SDS011;7481;53.750;10.570;2023-05-21T11:23:20;11.70;;;8.07;;
14778;SDS011;7481;53.750;10.570;2023-05-21T11:26:07;11.93;;;7.32;;
14778;SDS011;7481;53.750;10.570;2023-05-21T11:29:05;8.07;;;7.00;;
14778;SDS011;7481;53.750;10.570;2023-05-21T11:31:59;11.10;;;8.35;;
14778;SDS011;7481;53.750;10.570;2023-05-21T11:34:48;10.48;;;8.88;;
14778;SDS011;7481;53.750;10.570;2023-05-21T11:37:35;14.35;;;7.75;;
14778;SDS011;7481;53.750;10.570;2023-05-21T11:40:27;11.88;;;9.00;;
14778;SDS011;7481;53.750;10.570;2023-05-21T11:43:17;12.73;;;7.80;;
14778;SDS011;7481;53.750;10.570;2023-05-21T11:46:04;13.75;;;9.05;;
14778;SDS011;7481;53.750;10.570;2023-05-21T11:48:52;14.05;;;8.95;;
14778;SDS011;7481;53.750;10.570;2023-05-21T11:51:40;13.48;;;9.23;;
14778;SDS011;7481;53.750;10.570;2023-05-21T11:54:27;10.98;;;8.48;;
14778;SDS011;7481;53.750;10.570;2023-05-21T11:57:19;11.60;;;9.45;;
14778;SDS011;7481;53.750;10.570;2023-05-21T12:00:11;10.35;;;8.40;;
14778;SDS011;7481;53.750;10.570;2023-05-21T12:02:59;11.52;;;8.20;;
14778;SDS011;7481;53.750;10.570;2023-05-21T12:05:47;13.10;;;9.27;;
14778;SDS011;7481;53.750;10.570;2023-05-21T12:08:35;11.40;;;9.45;;
14778;SDS011;7481;53.750;10.570;2023-05-21T12:11:23;14.05;;;9.50;;
14778;SDS011;7481;53.750;10.570;2023-05-21T12:14:12;14.35;;;9.43;;
14778;SDS011;7481;53.750;10.570;2023-05-21T12:17:01;12.38;;;9.30;;
14778;SDS011;7481;53.750;10.570;2023-05-21T12:19:52;12.13;;;8.52;;
14778;SDS011;7481;53.750;10.570;2023-05-21T12:22:40;11.75;;;8.57;;
14778;SDS011;7481;53.750;10.570;2023-05-21T12:25:28;11.38;;;8.43;;
14778;SDS011;7481;53.750;10.570;2023-05-21T12:28:17;15.60;;;8.30;;
14778;SDS011;7481;53.750;10.570;2023-05-21T12:31:04;11.77;;;7.93;;
14778;SDS011;7481;53.750;10.570;2023-05-21T12:33:52;10.65;;;7.95;;
14778;SDS011;7481;53.750;10.570;2023-05-21T12:36:41;8.80;;;7.72;;
14778;SDS011;7481;53.750;10.570;2023-05-21T12:39:37;10.35;;;7.60;;
14778;SDS011;7481;53.750;10.570;2023-05-21T12:42:26;9.98;;;7.78;;
14778;SDS011;7481;53.750;10.570;2023-05-21T12:45:15;10.00;;;7.35;;
14778;SDS011;7481;53.750;10.570;2023-05-21T12:48:04;10.77;;;7.68;;
14778;SDS011;7481;53.750;10.570;2023-05-21T12:50:52;8.52;;;7.25;;
14778;SDS011;7481;53.750;10.570;2023-05-21T12:53:42;11.07;;;7.78;;
14778;SDS011;7481;53.750;10.570;2023-05-21T12:56:29;8.57;;;7.47;;
14778;SDS011;7481;53.750;10.570;2023-05-21T12:59:38;11.40;;;7.47;;
14778;SDS011;7481;53.750;10.570;2023-05-21T13:02:26;7.45;;;6.75;;
14778;SDS011;7481;53.750;10.570;2023-05-21T13:05:15;9.93;;;7.07;;
14778;SDS011;7481;53.750;10.570;2023-05-21T13:08:05;13.65;;;7.30;;
14778;SDS011;7481;53.750;10.570;2023-05-21T13:10:54;8.30;;;7.03;;
14778;SDS011;7481;53.750;10.570;2023-05-21T13:13:42;10.45;;;6.75;;
14778;SDS011;7481;53.750;10.570;2023-05-21T13:16:29;7.30;;;6.40;;
14778;SDS011;7481;53.750;10.570;2023-05-21T13:19:17;8.77;;;6.22;;
14778;SDS011;7481;53.750;10.570;2023-05-21T13:22:04;7.25;;;6.18;;
14778;SDS011;7481;53.750;10.570;2023-05-21T13:24:52;9.23;;;6.55;;
14778;SDS011;7481;53.750;10.570;2023-05-21T13:27:40;7.68;;;6.30;;
14778;SDS011;7481;53.750;10.570;2023-05-21T13:30:27;11.68;;;6.68;;
14778;SDS011;7481;53.750;10.570;2023-05-21T13:33:15;10.52;;;7.03;;
14778;SDS011;7481;53.750;10.570;2023-05-21T13:36:02;8.35;;;6.78;;
14778;SDS011;7481;53.750;10.570;2023-05-21T13:38:50;10.02;;;5.95;;
14778;SDS011;7481;53.750;10.570;2023-05-21T13:41:37;8.25;;;6.85;;
14778;SDS011;7481;53.750;10.570;2023-05-21T13:44:25;10.15;;;6.75;;
14778;SDS011;7481;53.750;10.570;2023-05-21T13:47:12;8.93;;;6.57;;
14778;SDS011;7481;53.750;10.570;2023-05-21T13:50:00;9.68;;;6.50;;
14778;SDS011;7481;53.750;10.570;2023-05-21T13:52:47;7.60;;;6.57;;
14778;SDS011;7481;53.750;10.570;2023-05-21T13:55:34;9.18;;;6.70;;
14778;SDS011;7481;53.750;10.570;2023-05-21T13:58:22;9.68;;;7.05;;
14778;SDS011;7481;53.750;10.570;2023-05-21T14:01:09;11.38;;;7.00;;
14778;SDS011;7481;53.750;10.570;2023-05-21T14:03:57;7.80;;;6.45;;
14778;SDS011;7481;53.750;10.570;2023-05-21T14:06:50;9.13;;;6.90;;
14778;SDS011;7481;53.750;10.570;2023-05-21T14:09:38;9.40;;;6.25;;
14778;SDS011;7481;53.750;10.570;2023-05-21T14:12:25;9.95;;;7.10;;
14778;SDS011;7481;53.750;10.570;2023-05-21T14:15:13;11.30;;;6.90;;
14778;SDS011;7481;53.750;10.570;2023-05-21T14:18:01;10.20;;;6.78;;
14778;SDS011;7481;53.750;10.570;2023-05-21T14:20:53;10.30;;;7.22;;
14778;SDS011;7481;53.750;10.570;2023-05-21T14:23:40;8.10;;;6.45;;
14778;SDS011;7481;53.750;10.570;2023-05-21T14:26:28;9.52;;;6.95;;
14778;SDS011;7481;53.750;10.570;2023-05-21T14:29:15;12.50;;;7.32;;
14778;SDS011;7481;53.750;10.570;2023-05-21T14:32:02;13.75;;;7.80;;
14778;SDS011;7481;53.750;10.570;2023-05-21T14:34:50;11.77;;;7.00;;
14778;SDS011;7481;53.750;10.570;2023-05-21T14:37:38;8.68;;;6.40;;
14778;SDS011;7481;53.750;10.570;2023-05-21T14:40:25;8.13;;;6.25;;
14778;SDS011;7481;53.750;10.570;2023-05-21T14:43:12;10.30;;;6.75;;
14778;SDS011;7481;53.750;10.570;2023-05-21T14:46:00;8.57;;;7.00;;
14778;SDS011;7481;53.750;10.570;2023-05-21T14:48:47;12.77;;;6.93;;
14778;SDS011;7481;53.750;10.570;2023-05-21T14:51:35;8.65;;;6.57;;
14778;SDS011;7481;53.750;10.570;2023-05-21T14:54:22;9.88;;;6.80;;
14778;SDS011;7481;53.750;10.570;2023-05-21T14:57:10;11.80;;;6.75;;
14778;SDS011;7481;53.750;10.570;2023-05-21T14:59:57;8.48;;;6.90;;
14778;SDS011;7481;53.750;10.570;2023-05-21T15:02:45;8.57;;;7.03;;
14778;SDS011;7481;53.750;10.570;2023-05-21T15:05:32;7.20;;;6.30;;
14778;SDS011;7481;53.750;10.570;2023-05-21T15:08:20;14.05;;;7.15;;
14778;SDS011;7481;53.750;10.570;2023-05-21T15:11:08;8.40;;;6.85;;
14778;SDS011;7481;53.750;10.570;2023-05-21T15:13:55;11.10;;;7.32;;
14778;SDS011;7481;53.750;10.570;2023-05-21T15:16:43;8.80;;;7.25;;
14778;SDS011;7481;53.750;10.570;2023-05-21T15:19:30;7.82;;;6.80;;
14778;SDS011;7481;53.750;10.570;2023-05-21T15:22:18;8.90;;;7.18;;
14778;SDS011;7481;53.750;10.570;2023-05-21T15:25:05;8.52;;;6.70;;
14778;SDS011;7481;53.750;10.570;2023-05-21T15:27:53;10.77;;;6.88;;
14778;SDS011;7481;53.750;10.570;2023-05-21T15:30:41;9.93;;;7.13;;
14778;SDS011;7481;53.750;10.570;2023-05-21T15:33:28;10.75;;;7.25;;
14778;SDS011;7481;53.750;10.570;2023-05-21T15:36:16;7.78;;;6.60;;
14778;SDS011;7481;53.750;10.570;2023-05-21T15:39:03;9.40;;;6.82;;
14778;SDS011;7481;53.750;10.570;2023-05-21T15:41:51;9.48;;;6.43;;
14778;SDS011;7481;53.750;10.570;2023-05-21T15:44:39;9.27;;;6.97;;
14778;SDS011;7481;53.750;10.570;2023-05-21T15:47:27;11.05;;;6.53;;
14778;SDS011;7481;53.750;10.570;2023-05-21T15:50:14;8.30;;;6.93;;
14778;SDS011;7481;53.750;10.570;2023-05-21T15:53:02;9.90;;;7.40;;
14778;SDS011;7481;53.750;10.570;2023-05-21T15:55:50;9.55;;;6.97;;
14778;SDS011;7481;53.750;10.570;2023-05-21T15:58:37;8.40;;;6.63;;
14778;SDS011;7481;53.750;10.570;2023-05-21T16:01:25;8.32;;;6.68;;
14778;SDS011;7481;53.750;10.570;2023-05-21T16:04:13;8.98;;;7.28;;
14778;SDS011;7481;53.750;10.570;2023-05-21T16:07:02;9.38;;;7.30;;
14778;SDS011;7481;53.750;10.570;2023-05-21T16:09:49;9.45;;;7.35;;
14778;SDS011;7481;53.750;10.570;2023-05-21T16:12:37;8.45;;;7.45;;
14778;SDS011;7481;53.750;10.570;2023-05-21T16:15:24;8.85;;;7.00;;
14778;SDS011;7481;53.750;10.570;2023-05-21T16:18:13;8.25;;;6.30;;
14778;SDS011;7481;53.750;10.570;2023-05-21T16:21:01;11.68;;;7.07;;
14778;SDS011;7481;53.750;10.570;2023-05-21T16:23:48;9.65;;;6.72;;
14778;SDS011;7481;53.750;10.570;2023-05-21T16:26:36;8.10;;;7.10;;
14778;SDS011;7481;53.750;10.570;2023-05-21T16:29:23;8.85;;;7.30;;
14778;SDS011;7481;53.750;10.570;2023-05-21T16:32:11;12.07;;;7.80;;
14778;SDS011;7481;53.750;10.570;2023-05-21T16:34:59;12.20;;;7.40;;
14778;SDS011;7481;53.750;10.570;2023-05-21T16:37:47;9.50;;;7.22;;
14778;SDS011;7481;53.750;10.570;2023-05-21T16:40:34;9.55;;;7.25;;
14778;SDS011;7481;53.750;10.570;2023-05-21T16:43:22;10.65;;;7.85;;
14778;SDS011;7481;53.750;10.570;2023-05-21T16:46:09;9.02;;;7.32;;
14778;SDS011;7481;53.750;10.570;2023-05-21T16:48:57;8.15;;;7.35;;
14778;SDS011;7481;53.750;10.570;2023-05-21T16:51:44;8.93;;;7.20;;
14778;SDS011;7481;53.750;10.570;2023-05-21T16:54:32;12.35;;;6.88;;
14778;SDS011;7481;53.750;10.570;2023-05-21T16:57:19;10.05;;;7.90;;
14778;SDS011;7481;53.750;10.570;2023-05-21T17:00:07;8.77;;;6.90;;
14778;SDS011;7481;53.750;10.570;2023-05-21T17:02:54;8.65;;;6.95;;
14778;SDS011;7481;53.750;10.570;2023-05-21T17:05:42;8.60;;;7.43;;
14778;SDS011;7481;53.750;10.570;2023-05-21T17:08:29;10.48;;;7.22;;
14778;SDS011;7481;53.750;10.570;2023-05-21T17:11:17;8.65;;;7.15;;
14778;SDS011;7481;53.750;10.570;2023-05-21T17:14:04;11.43;;;7.82;;